XMN weather

Xiamen Gaoqi International Airport
Xiamen, Fujian Province, China

Public forecast

Using degrees Celsius for public forecast. Weather courtesy of forecast.io.

METAR (pilot weather report)

Retrieved 2019/05/20 03:00 UTC (8 minutes ago):

ZSAM 200300Z VRB01MPS 6000 FEW040 31/27 Q1007 NOSIG

TAF (pilot weather forecast)

Forecast is more than 12 hours old.

Retrieved 2019/05/19 00:00 UTC (1 day ago):

TAF COR ZSAM 191918Z 2000/2024 21003MPS 6000 SCT017 BKN030 TX31/2005Z TN22/2021Z BECMG 2004/2005 06006G12MPS BKN007 BKN023 TEMPO 2004/2010 2500 TSRA BR BKN005 FEW020CB OVC023 BECMG 2012/2013 SCT017 SCT030